Tropical Cyclones
[Index]
Main Index Home Page Stock Weather Photos Extreme Storms Discussion Storm News and Storm Chasing Reports Tropical Cyclones / Hurricanes / Typhoons Weather Data and Links Wild Fires / Bushfires Weather Observation Techniques Weather Picture Catalogue Tornado Pictures and Reports Stock Video Footage and DVDs for sale
Season 2009-2010 Tropical Cyclone CLEO Track Map
Season 2009-2010 Summaries: [BoM-AU] [JTWC-AU] [JTWC-SIO] [JTWC-SPAC] [JTWC-SH]
<<- Previous TC | JTWC 2009-2010 Season | Next TC ->>

click for intensity scale information  Lat/long Grid: Show Hide

 Date Labels: Show Hide

Joint Typhoon Warning Centre Cyclone Data

Name: CLEO

04 Dec 2009 06:00 UTC to 14 Dec 2009 12:00 UTC

    date/time    lat    long     hPa   cat  kts
2009-12-04 06    8.5    91.1    1010         15          
2009-12-04 12    8.3    90.4    1010         15          
2009-12-04 18    8.6    89.8    1010         15          
2009-12-05 00    9.0    89.0    1010         15          
2009-12-05 06    9.2    88.0    1010         15          
2009-12-05 12    9.3    87.0    1010         15          
2009-12-05 18    9.2    86.0    1010         15          
2009-12-06 00    8.7    85.2    1007         20          
2009-12-06 06    8.6    84.3    1004         25          
2009-12-06 12    8.5    83.4    1000         30          
2009-12-06 18    8.5    82.7    1000         30          
2009-12-07 00    8.7    81.6     996         35          
2009-12-07 06    8.9    80.5     993    1    40          
2009-12-07 12    9.1    79.4     989    1    45          
2009-12-07 18    9.7    78.4     982    2    55          
2009-12-07 18    9.7    78.4     982    2    55          
2009-12-08 00   10.4    77.4     974    2    65          
2009-12-08 00   10.4    77.4     974    2    65          
2009-12-08 00   10.4    77.4     974    2    65          
2009-12-08 06   10.8    76.4     948    4   100          
2009-12-08 06   10.8    76.4     948    4   100          
2009-12-08 06   10.8    76.4     948    4   100          
2009-12-08 12   11.1    75.6     937    4   115          
2009-12-08 12   11.1    75.6     937    4   115          
2009-12-08 12   11.1    75.6     937    4   115          
2009-12-08 18   11.4    74.8     937    4   115          
2009-12-08 18   11.4    74.8     937    4   115          
2009-12-08 18   11.4    74.8     937    4   115          
2009-12-09 00   11.5    74.0     944    4   105          
2009-12-09 00   11.5    74.0     944    4   105          
2009-12-09 00   11.5    74.0     944    4   105          
2009-12-09 06   11.8    73.2     948    4   100          
2009-12-09 06   11.8    73.2     948    4   100          
2009-12-09 06   11.8    73.2     948    4   100          
2009-12-09 12   12.2    72.5     956    3    90          
2009-12-09 12   12.2    72.5     956    3    90          
2009-12-09 12   12.2    72.5     956    3    90          
2009-12-09 18   12.7    71.7     956    3    90          
2009-12-09 18   12.7    71.7     956    3    90          
2009-12-09 18   12.7    71.7     956    3    90          
2009-12-10 00   13.1    71.0     963    3    80          
2009-12-10 00   13.1    71.0     963    3    80          
2009-12-10 00   13.1    71.0     963    3    80          
2009-12-10 06   13.4    70.4     978    2    60          
2009-12-10 06   13.4    70.4     978    2    60          
2009-12-10 12   13.9    69.8     985    1    50          
2009-12-10 12   13.9    69.8     985    1    50          
2009-12-10 18   14.0    69.2     985    1    50          
2009-12-10 18   14.0    69.2     985    1    50          
2009-12-11 00   14.0    68.5     989    1    45          
2009-12-11 06   13.8    67.7     996         35          
2009-12-11 12   14.0    66.8    1000         30          
2009-12-11 18   14.2    66.0    1002         30          
2009-12-12 00   14.4    65.2    1000         30          
2009-12-12 06   14.5    64.4    1000         30          
2009-12-12 12   14.6    63.7    1004         25          
2009-12-12 18   14.8    63.0    1004         25          
2009-12-13 00   15.1    62.5    1000         30          
2009-12-13 06   15.6    62.1    1000         30          
2009-12-13 12   16.3    62.0    1000         30          
2009-12-13 18   16.9    61.7    1000         30          
2009-12-14 00   17.8    61.2    1000         30          
2009-12-14 06   18.6    60.5    1004         25          
2009-12-14 12   19.4    60.0    1004         25          
Winds are 1-min average.

Tropical cyclone tracks developed by Michael Bath using data from the Joint Typhoon Warning Centre Best Tracks and Google Maps.


[Australian Severe Weather index] [Copyright Notice] [Email Contacts] [Search This Site] [Privacy Policy]
Document: tropical_cyclone_cleo.htm Updated: 28 June 2017